DAL1159 KMKE-KATL
Flight info
| Callsign | DAL1159 |
|---|---|
| Flight time | 1h 39m |
| Altitude | 35000 |
| Route | UECKR6 DELHI LCOLN TTH IMPEL HITMN NEWBB IHAVE MTHEW CHPPR1 |
| Aircraft | A20N/M-SDE2E3FGHIRWXY/LB1 |
Departure
| Time | 2026-04-14 15:24 |
|---|---|
| Airport | General Mitchell International Airport (KMKE) |
Arrival
| Time | 2026-04-14 17:03 |
|---|---|
| Airport | Hartsfield Jackson Atlanta International Airport (KATL) |
| Time | Latitude | Longitude | Altitude | Speed | Heading |
|---|---|---|---|---|---|
| 2026-04-14 15:03 | 42.94643 | -87.89924 | 679 ft | 0 kts | 39° |
| 2026-04-14 15:15 | 42.94644 | -87.89923 | 680 ft | 1 kts | 39° |
| 2026-04-14 15:15 | 42.94636 | -87.89931 | 680 ft | 2 kts | 44° |
| 2026-04-14 15:15 | 42.94628 | -87.89950 | 681 ft | 2 kts | 77° |
| 2026-04-14 15:16 | 42.94628 | -87.89972 | 679 ft | 2 kts | 113° |
| 2026-04-14 15:16 | 42.94632 | -87.89983 | 676 ft | 0 kts | 124° |
| 2026-04-14 15:18 | 42.94616 | -87.89950 | 679 ft | 12 kts | 124° |
| 2026-04-14 15:18 | 42.94594 | -87.89892 | 681 ft | 6 kts | 107° |
| 2026-04-14 15:19 | 42.94588 | -87.89844 | 681 ft | 4 kts | 94° |
| 2026-04-14 15:19 | 42.94596 | -87.89790 | 681 ft | 7 kts | 66° |
| 2026-04-14 15:19 | 42.94630 | -87.89750 | 680 ft | 7 kts | 22° |
| 2026-04-14 15:19 | 42.94684 | -87.89735 | 679 ft | 8 kts | 7° |
| 2026-04-14 15:20 | 42.94740 | -87.89715 | 678 ft | 8 kts | 32° |
| 2026-04-14 15:20 | 42.94769 | -87.89650 | 677 ft | 8 kts | 58° |
| 2026-04-14 15:20 | 42.94827 | -87.89613 | 674 ft | 11 kts | 8° |
| 2026-04-14 15:20 | 42.94908 | -87.89599 | 674 ft | 12 kts | 7° |
| 2026-04-14 15:21 | 42.94976 | -87.89588 | 675 ft | 9 kts | 7° |
| 2026-04-14 15:21 | 42.95030 | -87.89578 | 675 ft | 9 kts | 7° |
| 2026-04-14 15:21 | 42.95136 | -87.89560 | 673 ft | 17 kts | 7° |
| 2026-04-14 15:21 | 42.95248 | -87.89542 | 674 ft | 15 kts | 7° |
| 2026-04-14 15:22 | 42.95336 | -87.89527 | 677 ft | 11 kts | 7° |
| 2026-04-14 15:22 | 42.95422 | -87.89513 | 678 ft | 17 kts | 7° |
| 2026-04-14 15:22 | 42.95535 | -87.89494 | 679 ft | 15 kts | 7° |
| 2026-04-14 15:22 | 42.95632 | -87.89478 | 680 ft | 14 kts | 7° |
| 2026-04-14 15:23 | 42.95725 | -87.89433 | 679 ft | 14 kts | 54° |
| 2026-04-14 15:23 | 42.95724 | -87.89318 | 677 ft | 13 kts | 148° |
| 2026-04-14 15:23 | 42.95630 | -87.89323 | 679 ft | 20 kts | 187° |
| 2026-04-14 15:23 | 42.95208 | -87.89400 | 676 ft | 102 kts | 187° |
| 2026-04-14 15:24 | 42.94277 | -87.89563 | 767 ft | 155 kts | 189° |
| 2026-04-14 15:24 | 42.93211 | -87.89723 | 1605 ft | 156 kts | 194° |
| 2026-04-14 15:24 | 42.92117 | -87.89864 | 2351 ft | 158 kts | 192° |
| 2026-04-14 15:24 | 42.90956 | -87.90059 | 2630 ft | 178 kts | 194° |
| 2026-04-14 15:25 | 42.89657 | -87.90102 | 2981 ft | 198 kts | 175° |
| 2026-04-14 15:25 | 42.88277 | -87.89476 | 3357 ft | 221 kts | 156° |
| 2026-04-14 15:25 | 42.86939 | -87.88235 | 3781 ft | 246 kts | 147° |
| 2026-04-14 15:25 | 42.85586 | -87.86643 | 4257 ft | 268 kts | 137° |
| 2026-04-14 15:26 | 42.84435 | -87.84518 | 4789 ft | 286 kts | 123° |
| 2026-04-14 15:26 | 42.83389 | -87.82193 | 5609 ft | 290 kts | 127° |
| 2026-04-14 15:26 | 42.82133 | -87.80028 | 6344 ft | 293 kts | 139° |
| 2026-04-14 15:26 | 42.80659 | -87.78084 | 7042 ft | 298 kts | 141° |
| 2026-04-14 15:27 | 42.79126 | -87.76159 | 7774 ft | 302 kts | 142° |
| 2026-04-14 15:27 | 42.77557 | -87.74235 | 8534 ft | 306 kts | 143° |
| 2026-04-14 15:27 | 42.75958 | -87.72299 | 9304 ft | 310 kts | 143° |
| 2026-04-14 15:27 | 42.74334 | -87.70341 | 10046 ft | 314 kts | 143° |
| 2026-04-14 15:28 | 42.72657 | -87.68323 | 10416 ft | 332 kts | 143° |
| 2026-04-14 15:28 | 42.70753 | -87.66403 | 10601 ft | 350 kts | 154° |
| 2026-04-14 15:28 | 42.68525 | -87.64983 | 11053 ft | 355 kts | 166° |
| 2026-04-14 15:28 | 42.66134 | -87.64187 | 11698 ft | 354 kts | 177° |
| 2026-04-14 15:29 | 42.63678 | -87.63936 | 12384 ft | 355 kts | 182° |
| 2026-04-14 15:29 | 42.61204 | -87.63751 | 13066 ft | 358 kts | 182° |
| 2026-04-14 15:29 | 42.58698 | -87.63569 | 13702 ft | 362 kts | 182° |
| 2026-04-14 15:29 | 42.56169 | -87.63389 | 14293 ft | 365 kts | 182° |
| 2026-04-14 15:30 | 42.53623 | -87.63207 | 14903 ft | 368 kts | 182° |
| 2026-04-14 15:30 | 42.51925 | -87.63084 | 15310 ft | 370 kts | 182° |
| 2026-04-14 15:30 | 42.49345 | -87.62886 | 15929 ft | 372 kts | 182° |
| 2026-04-14 15:30 | 42.46752 | -87.62676 | 16536 ft | 375 kts | 182° |
| 2026-04-14 15:31 | 42.44138 | -87.62461 | 17133 ft | 377 kts | 183° |
| 2026-04-14 15:31 | 42.41529 | -87.62572 | 17726 ft | 373 kts | 193° |
| 2026-04-14 15:31 | 42.38966 | -87.63104 | 18304 ft | 374 kts | 195° |
| 2026-04-14 15:31 | 42.36386 | -87.63655 | 18817 ft | 376 kts | 195° |
| 2026-04-14 15:32 | 42.33799 | -87.64208 | 19364 ft | 378 kts | 195° |
| 2026-04-14 15:32 | 42.31240 | -87.64942 | 19907 ft | 374 kts | 203° |
| 2026-04-14 15:32 | 42.28827 | -87.66196 | 20456 ft | 371 kts | 209° |
| 2026-04-14 15:32 | 42.26450 | -87.67557 | 21008 ft | 372 kts | 209° |
| 2026-04-14 15:33 | 42.24061 | -87.68924 | 21559 ft | 374 kts | 209° |
| 2026-04-14 15:33 | 42.21661 | -87.70295 | 22090 ft | 375 kts | 209° |
| 2026-04-14 15:33 | 42.19252 | -87.71670 | 22612 ft | 377 kts | 209° |
| 2026-04-14 15:33 | 42.16834 | -87.73044 | 23115 ft | 378 kts | 209° |
| 2026-04-14 15:34 | 42.14400 | -87.74421 | 23584 ft | 381 kts | 209° |
| 2026-04-14 15:34 | 42.11949 | -87.75803 | 23992 ft | 382 kts | 209° |
| 2026-04-14 15:34 | 42.09481 | -87.77160 | 24389 ft | 386 kts | 205° |
| 2026-04-14 15:34 | 42.06844 | -87.78068 | 24772 ft | 396 kts | 195° |
| 2026-04-14 15:35 | 42.04059 | -87.78330 | 25134 ft | 405 kts | 188° |
| 2026-04-14 15:35 | 42.01237 | -87.78403 | 25498 ft | 406 kts | 189° |
| 2026-04-14 15:35 | 41.98406 | -87.78479 | 25860 ft | 408 kts | 189° |
| 2026-04-14 15:35 | 41.95564 | -87.78556 | 26192 ft | 409 kts | 189° |
| 2026-04-14 15:36 | 41.92699 | -87.78525 | 26542 ft | 416 kts | 183° |
| 2026-04-14 15:36 | 41.89799 | -87.78119 | 26889 ft | 420 kts | 182° |
| 2026-04-14 15:36 | 41.86890 | -87.77695 | 27223 ft | 422 kts | 182° |
| 2026-04-14 15:36 | 41.83964 | -87.77270 | 27555 ft | 423 kts | 182° |
| 2026-04-14 15:37 | 41.81026 | -87.76848 | 27875 ft | 425 kts | 182° |
| 2026-04-14 15:37 | 41.78085 | -87.76430 | 28197 ft | 426 kts | 182° |
| 2026-04-14 15:37 | 41.75131 | -87.76011 | 28473 ft | 428 kts | 182° |
| 2026-04-14 15:37 | 41.72161 | -87.75593 | 28774 ft | 429 kts | 182° |
| 2026-04-14 15:38 | 41.69189 | -87.75174 | 29063 ft | 431 kts | 182° |
| 2026-04-14 15:38 | 41.66203 | -87.74750 | 29355 ft | 433 kts | 183° |
| 2026-04-14 15:38 | 41.63203 | -87.74327 | 29636 ft | 434 kts | 183° |
| 2026-04-14 15:38 | 41.60191 | -87.73903 | 29913 ft | 435 kts | 183° |
| 2026-04-14 15:39 | 41.57177 | -87.73478 | 30142 ft | 437 kts | 183° |
| 2026-04-14 15:39 | 41.54150 | -87.73049 | 30342 ft | 438 kts | 183° |
| 2026-04-14 15:39 | 41.51114 | -87.72617 | 30525 ft | 440 kts | 183° |
| 2026-04-14 15:39 | 41.48067 | -87.72183 | 30709 ft | 440 kts | 183° |
| 2026-04-14 15:40 | 41.45024 | -87.71747 | 30978 ft | 440 kts | 183° |
| 2026-04-14 15:40 | 41.41987 | -87.71312 | 31262 ft | 439 kts | 183° |
| 2026-04-14 15:40 | 41.38953 | -87.70877 | 31528 ft | 438 kts | 183° |
| 2026-04-14 15:40 | 41.35929 | -87.70449 | 31777 ft | 438 kts | 183° |
| 2026-04-14 15:41 | 41.32898 | -87.70026 | 32042 ft | 437 kts | 183° |
| 2026-04-14 15:41 | 41.29879 | -87.69606 | 32294 ft | 437 kts | 183° |
| 2026-04-14 15:41 | 41.26853 | -87.69182 | 32610 ft | 436 kts | 183° |
| 2026-04-14 15:41 | 41.23839 | -87.68761 | 32962 ft | 435 kts | 183° |
| 2026-04-14 15:42 | 41.20834 | -87.68341 | 33236 ft | 435 kts | 183° |
| 2026-04-14 15:42 | 41.17827 | -87.67921 | 33494 ft | 434 kts | 183° |
| 2026-04-14 15:42 | 41.14823 | -87.67499 | 33757 ft | 434 kts | 183° |
| 2026-04-14 15:42 | 41.11823 | -87.67079 | 34020 ft | 433 kts | 183° |
| 2026-04-14 15:43 | 41.08825 | -87.66661 | 34223 ft | 433 kts | 183° |
| 2026-04-14 15:43 | 41.05832 | -87.66245 | 34449 ft | 432 kts | 183° |
| 2026-04-14 15:43 | 41.02846 | -87.65829 | 34672 ft | 432 kts | 183° |
| 2026-04-14 15:43 | 40.99857 | -87.65414 | 34870 ft | 432 kts | 184° |
| 2026-04-14 15:44 | 40.93892 | -87.64577 | 34960 ft | 429 kts | 184° |
| 2026-04-14 15:44 | 40.87964 | -87.63753 | 34922 ft | 428 kts | 184° |
| 2026-04-14 15:45 | 40.82022 | -87.62941 | 34950 ft | 429 kts | 184° |
| 2026-04-14 15:45 | 40.76116 | -87.62124 | 34944 ft | 430 kts | 183° |
| 2026-04-14 15:46 | 40.70170 | -87.61298 | 34946 ft | 430 kts | 183° |
| 2026-04-14 15:46 | 40.64221 | -87.60474 | 34945 ft | 430 kts | 183° |
| 2026-04-14 15:47 | 40.58273 | -87.59655 | 34951 ft | 430 kts | 184° |
| 2026-04-14 15:47 | 40.52329 | -87.58848 | 34959 ft | 430 kts | 184° |
| 2026-04-14 15:48 | 40.46380 | -87.58032 | 34981 ft | 430 kts | 183° |
| 2026-04-14 15:48 | 40.40428 | -87.57215 | 34970 ft | 431 kts | 183° |
| 2026-04-14 15:49 | 40.34459 | -87.56401 | 34996 ft | 432 kts | 183° |
| 2026-04-14 15:49 | 40.28477 | -87.55343 | 35013 ft | 442 kts | 174° |
| 2026-04-14 15:50 | 40.22531 | -87.53065 | 34994 ft | 446 kts | 172° |
| 2026-04-14 15:50 | 40.16575 | -87.50761 | 35002 ft | 447 kts | 172° |
| 2026-04-14 15:51 | 40.10607 | -87.48463 | 35002 ft | 448 kts | 172° |
| 2026-04-14 15:51 | 40.04630 | -87.46162 | 34961 ft | 448 kts | 172° |
| 2026-04-14 15:52 | 39.98647 | -87.43862 | 34956 ft | 448 kts | 173° |
| 2026-04-14 15:52 | 39.92673 | -87.41569 | 34982 ft | 448 kts | 173° |
| 2026-04-14 15:53 | 39.86699 | -87.39284 | 35007 ft | 447 kts | 173° |
| 2026-04-14 15:53 | 39.80726 | -87.36993 | 35016 ft | 447 kts | 173° |
| 2026-04-14 15:54 | 39.71766 | -87.33569 | 35003 ft | 447 kts | 173° |
| 2026-04-14 15:55 | 39.65805 | -87.31301 | 35002 ft | 446 kts | 173° |
| 2026-04-14 15:55 | 39.59838 | -87.29043 | 35012 ft | 447 kts | 173° |
| 2026-04-14 15:56 | 39.53872 | -87.26785 | 34965 ft | 447 kts | 172° |
| 2026-04-14 15:56 | 39.47853 | -87.24759 | 35010 ft | 441 kts | 180° |
| 2026-04-14 15:57 | 39.41786 | -87.23859 | 35019 ft | 439 kts | 182° |
| 2026-04-14 15:57 | 39.35905 | -87.22985 | 35017 ft | 439 kts | 182° |
| 2026-04-14 15:58 | 39.29846 | -87.22070 | 34989 ft | 439 kts | 182° |
| 2026-04-14 15:58 | 39.24527 | -87.21270 | 34994 ft | 440 kts | 182° |
| 2026-04-14 15:59 | 39.18443 | -87.20372 | 34999 ft | 440 kts | 182° |
| 2026-04-14 15:59 | 39.12355 | -87.19478 | 35003 ft | 441 kts | 182° |
| 2026-04-14 16:00 | 39.06253 | -87.18574 | 34981 ft | 441 kts | 182° |
| 2026-04-14 16:00 | 39.00148 | -87.17675 | 35006 ft | 442 kts | 182° |
| 2026-04-14 16:01 | 38.94030 | -87.16774 | 35031 ft | 443 kts | 182° |
| 2026-04-14 16:01 | 38.87906 | -87.15880 | 35049 ft | 443 kts | 182° |
| 2026-04-14 16:02 | 38.81780 | -87.14981 | 35041 ft | 443 kts | 181° |
| 2026-04-14 16:02 | 38.75653 | -87.14081 | 35055 ft | 443 kts | 181° |
| 2026-04-14 16:03 | 38.69522 | -87.13183 | 35061 ft | 444 kts | 181° |
| 2026-04-14 16:03 | 38.63382 | -87.12292 | 35026 ft | 444 kts | 181° |
| 2026-04-14 16:04 | 38.57243 | -87.11394 | 35031 ft | 444 kts | 181° |
| 2026-04-14 16:04 | 38.51104 | -87.10497 | 35054 ft | 444 kts | 181° |
| 2026-04-14 16:05 | 38.44975 | -87.09602 | 35075 ft | 443 kts | 181° |
| 2026-04-14 16:05 | 38.38844 | -87.08710 | 35096 ft | 443 kts | 181° |
| 2026-04-14 16:06 | 38.32716 | -87.07785 | 35111 ft | 444 kts | 180° |
| 2026-04-14 16:06 | 38.26581 | -87.06661 | 35119 ft | 446 kts | 179° |
| 2026-04-14 16:07 | 38.20449 | -87.05469 | 35126 ft | 446 kts | 179° |
| 2026-04-14 16:07 | 38.14310 | -87.04310 | 35087 ft | 446 kts | 179° |
| 2026-04-14 16:08 | 38.08177 | -87.03188 | 35091 ft | 445 kts | 179° |
| 2026-04-14 16:08 | 38.02041 | -87.02072 | 35091 ft | 445 kts | 179° |
| 2026-04-14 16:09 | 37.95910 | -87.00951 | 35096 ft | 445 kts | 179° |
| 2026-04-14 16:09 | 37.89816 | -86.99840 | 35081 ft | 445 kts | 179° |
| 2026-04-14 16:10 | 37.83642 | -86.98721 | 35095 ft | 445 kts | 179° |
| 2026-04-14 16:10 | 37.77510 | -86.97607 | 35101 ft | 445 kts | 179° |
| 2026-04-14 16:11 | 37.71423 | -86.96501 | 35102 ft | 445 kts | 179° |
| 2026-04-14 16:11 | 37.65295 | -86.95389 | 35081 ft | 445 kts | 179° |
| 2026-04-14 16:12 | 37.59166 | -86.94288 | 35075 ft | 445 kts | 179° |
| 2026-04-14 16:12 | 37.53028 | -86.93188 | 35086 ft | 446 kts | 179° |
| 2026-04-14 16:13 | 37.46882 | -86.92072 | 35097 ft | 447 kts | 179° |
| 2026-04-14 16:13 | 37.40729 | -86.90954 | 35084 ft | 447 kts | 178° |
| 2026-04-14 16:14 | 37.35570 | -86.90020 | 35098 ft | 447 kts | 178° |
| 2026-04-14 16:14 | 37.29449 | -86.88928 | 35104 ft | 447 kts | 179° |
| 2026-04-14 16:15 | 37.23249 | -86.87822 | 35111 ft | 447 kts | 178° |
| 2026-04-14 16:15 | 37.17126 | -86.86719 | 35094 ft | 447 kts | 178° |
| 2026-04-14 16:16 | 37.10920 | -86.85611 | 35104 ft | 448 kts | 179° |
| 2026-04-14 16:16 | 37.04790 | -86.84524 | 35116 ft | 448 kts | 178° |
| 2026-04-14 16:17 | 36.98619 | -86.83426 | 35126 ft | 448 kts | 178° |
| 2026-04-14 16:17 | 36.92441 | -86.82322 | 35116 ft | 448 kts | 179° |
| 2026-04-14 16:18 | 36.86270 | -86.81217 | 35129 ft | 448 kts | 179° |
| 2026-04-14 16:18 | 36.80096 | -86.80124 | 35135 ft | 448 kts | 179° |
| 2026-04-14 16:19 | 36.73923 | -86.79033 | 35148 ft | 448 kts | 179° |
| 2026-04-14 16:19 | 36.67755 | -86.77944 | 35139 ft | 448 kts | 179° |
| 2026-04-14 16:20 | 36.61576 | -86.76854 | 35154 ft | 447 kts | 179° |
| 2026-04-14 16:20 | 36.55408 | -86.75779 | 35174 ft | 447 kts | 179° |
| 2026-04-14 16:21 | 36.49256 | -86.74704 | 35184 ft | 447 kts | 179° |
| 2026-04-14 16:21 | 36.43098 | -86.73627 | 35176 ft | 447 kts | 179° |
| 2026-04-14 16:22 | 36.36936 | -86.72544 | 35167 ft | 448 kts | 179° |
| 2026-04-14 16:22 | 36.30770 | -86.71464 | 35190 ft | 448 kts | 179° |
| 2026-04-14 16:23 | 36.24595 | -86.70381 | 35201 ft | 448 kts | 179° |
| 2026-04-14 16:23 | 36.18425 | -86.69303 | 35187 ft | 448 kts | 178° |
| 2026-04-14 16:24 | 36.12337 | -86.67367 | 35192 ft | 461 kts | 162° |
| 2026-04-14 16:24 | 36.06662 | -86.63534 | 35197 ft | 466 kts | 156° |
| 2026-04-14 16:25 | 36.01030 | -86.59546 | 35207 ft | 466 kts | 156° |
| 2026-04-14 16:25 | 35.95394 | -86.55583 | 35204 ft | 467 kts | 156° |
| 2026-04-14 16:26 | 35.89744 | -86.51626 | 35207 ft | 467 kts | 156° |
| 2026-04-14 16:26 | 35.84087 | -86.47668 | 35209 ft | 468 kts | 156° |
| 2026-04-14 16:27 | 35.78428 | -86.43705 | 35212 ft | 468 kts | 156° |
| 2026-04-14 16:27 | 35.72766 | -86.39746 | 35214 ft | 468 kts | 156° |
| 2026-04-14 16:28 | 35.67111 | -86.35738 | 35208 ft | 469 kts | 155° |
| 2026-04-14 16:28 | 35.61468 | -86.31707 | 35215 ft | 469 kts | 155° |
| 2026-04-14 16:29 | 35.55813 | -86.27696 | 35221 ft | 469 kts | 156° |
| 2026-04-14 16:29 | 35.50146 | -86.23704 | 35242 ft | 469 kts | 156° |
| 2026-04-14 16:30 | 35.44491 | -86.19721 | 35245 ft | 470 kts | 155° |
| 2026-04-14 16:30 | 35.39165 | -86.14937 | 35229 ft | 476 kts | 146° |
| 2026-04-14 16:31 | 35.33994 | -86.09897 | 35236 ft | 476 kts | 146° |
| 2026-04-14 16:31 | 35.28800 | -86.04864 | 35246 ft | 475 kts | 146° |
| 2026-04-14 16:32 | 35.23609 | -85.99860 | 35250 ft | 476 kts | 147° |
| 2026-04-14 16:32 | 35.18390 | -85.94869 | 35246 ft | 475 kts | 147° |
| 2026-04-14 16:33 | 35.13187 | -85.89894 | 35223 ft | 475 kts | 146° |
| 2026-04-14 16:33 | 35.10572 | -85.87400 | 35121 ft | 476 kts | 147° |
| 2026-04-14 16:33 | 35.07966 | -85.84918 | 34571 ft | 477 kts | 147° |
| 2026-04-14 16:33 | 35.05320 | -85.82402 | 33477 ft | 485 kts | 147° |
| 2026-04-14 16:34 | 35.02668 | -85.79873 | 32885 ft | 481 kts | 146° |
| 2026-04-14 16:34 | 35.00076 | -85.77397 | 32255 ft | 477 kts | 147° |
| 2026-04-14 16:34 | 34.97442 | -85.74889 | 31635 ft | 474 kts | 147° |
| 2026-04-14 16:34 | 34.94846 | -85.72422 | 31013 ft | 471 kts | 147° |
| 2026-04-14 16:35 | 34.92268 | -85.69974 | 30404 ft | 468 kts | 147° |
| 2026-04-14 16:35 | 34.89706 | -85.67539 | 29739 ft | 465 kts | 147° |
| 2026-04-14 16:35 | 34.87209 | -85.65166 | 29158 ft | 461 kts | 147° |
| 2026-04-14 16:35 | 34.84677 | -85.62770 | 28586 ft | 457 kts | 147° |
| 2026-04-14 16:36 | 34.82176 | -85.60407 | 28001 ft | 453 kts | 147° |
| 2026-04-14 16:36 | 34.79700 | -85.58067 | 27470 ft | 448 kts | 146° |
| 2026-04-14 16:36 | 34.77250 | -85.55752 | 26945 ft | 444 kts | 147° |
| 2026-04-14 16:36 | 34.74825 | -85.53460 | 26437 ft | 439 kts | 147° |
| 2026-04-14 16:37 | 34.72426 | -85.51194 | 25934 ft | 435 kts | 147° |
| 2026-04-14 16:37 | 34.70055 | -85.48962 | 25451 ft | 431 kts | 147° |
| 2026-04-14 16:37 | 34.67681 | -85.46728 | 24963 ft | 428 kts | 147° |
| 2026-04-14 16:37 | 34.65343 | -85.44526 | 24488 ft | 424 kts | 146° |
| 2026-04-14 16:38 | 34.63020 | -85.42332 | 23998 ft | 422 kts | 146° |
| 2026-04-14 16:38 | 34.60709 | -85.40150 | 23467 ft | 419 kts | 146° |
| 2026-04-14 16:38 | 34.58418 | -85.37987 | 22997 ft | 415 kts | 146° |
| 2026-04-14 16:38 | 34.56149 | -85.35851 | 22529 ft | 412 kts | 146° |
| 2026-04-14 16:39 | 34.53892 | -85.33732 | 22052 ft | 409 kts | 146° |
| 2026-04-14 16:39 | 34.51619 | -85.31602 | 21562 ft | 406 kts | 146° |
| 2026-04-14 16:39 | 34.49391 | -85.29516 | 21090 ft | 404 kts | 146° |
| 2026-04-14 16:39 | 34.47212 | -85.27478 | 20604 ft | 402 kts | 146° |
| 2026-04-14 16:40 | 34.44962 | -85.25383 | 20140 ft | 400 kts | 146° |
| 2026-04-14 16:40 | 34.42789 | -85.23355 | 19650 ft | 399 kts | 146° |
| 2026-04-14 16:40 | 34.40604 | -85.21306 | 19171 ft | 398 kts | 146° |
| 2026-04-14 16:40 | 34.38408 | -85.19246 | 18677 ft | 397 kts | 146° |
| 2026-04-14 16:41 | 34.36229 | -85.17204 | 18145 ft | 395 kts | 145° |
| 2026-04-14 16:41 | 34.34060 | -85.15178 | 17665 ft | 392 kts | 145° |
| 2026-04-14 16:41 | 34.31912 | -85.13174 | 17192 ft | 389 kts | 145° |
| 2026-04-14 16:41 | 34.29814 | -85.11222 | 16477 ft | 393 kts | 145° |
| 2026-04-14 16:42 | 34.27613 | -85.09171 | 16191 ft | 385 kts | 145° |
| 2026-04-14 16:42 | 34.25518 | -85.07217 | 15483 ft | 377 kts | 145° |
| 2026-04-14 16:42 | 34.23479 | -85.05321 | 15035 ft | 362 kts | 145° |
| 2026-04-14 16:42 | 34.21766 | -85.03729 | 14662 ft | 351 kts | 145° |
| 2026-04-14 16:43 | 34.19956 | -85.02046 | 14266 ft | 339 kts | 145° |
| 2026-04-14 16:43 | 34.18119 | -85.00336 | 13839 ft | 328 kts | 145° |
| 2026-04-14 16:43 | 34.16333 | -84.98675 | 13422 ft | 322 kts | 145° |
| 2026-04-14 16:43 | 34.14556 | -84.97028 | 13031 ft | 322 kts | 145° |
| 2026-04-14 16:44 | 34.12758 | -84.95358 | 12815 ft | 334 kts | 145° |
| 2026-04-14 16:44 | 34.10912 | -84.93622 | 12626 ft | 339 kts | 144° |
| 2026-04-14 16:44 | 34.09057 | -84.91861 | 12444 ft | 339 kts | 144° |
| 2026-04-14 16:45 | 34.05366 | -84.88349 | 12054 ft | 337 kts | 144° |
| 2026-04-14 16:45 | 34.03528 | -84.86609 | 11866 ft | 335 kts | 144° |
| 2026-04-14 16:45 | 34.01697 | -84.84876 | 11674 ft | 334 kts | 144° |
| 2026-04-14 16:45 | 33.99870 | -84.83148 | 11481 ft | 332 kts | 144° |
| 2026-04-14 16:46 | 33.98055 | -84.81435 | 11290 ft | 331 kts | 144° |
| 2026-04-14 16:46 | 33.96242 | -84.79726 | 11101 ft | 330 kts | 144° |
| 2026-04-14 16:46 | 33.94436 | -84.78021 | 10914 ft | 329 kts | 144° |
| 2026-04-14 16:46 | 33.92634 | -84.76324 | 10722 ft | 328 kts | 144° |
| 2026-04-14 16:47 | 33.90845 | -84.74639 | 10530 ft | 327 kts | 144° |
| 2026-04-14 16:47 | 33.89064 | -84.72962 | 10358 ft | 325 kts | 144° |
| 2026-04-14 16:47 | 33.87304 | -84.71304 | 10199 ft | 315 kts | 144° |
| 2026-04-14 16:47 | 33.85615 | -84.69712 | 10030 ft | 304 kts | 144° |
| 2026-04-14 16:48 | 33.83961 | -84.68158 | 9831 ft | 298 kts | 144° |
| 2026-04-14 16:48 | 33.82333 | -84.66631 | 9727 ft | 297 kts | 143° |
| 2026-04-14 16:48 | 33.80703 | -84.65107 | 9573 ft | 296 kts | 144° |
| 2026-04-14 16:48 | 33.79084 | -84.63592 | 9400 ft | 295 kts | 144° |
| 2026-04-14 16:49 | 33.77476 | -84.62089 | 9238 ft | 294 kts | 144° |
| 2026-04-14 16:49 | 33.75855 | -84.60566 | 9073 ft | 294 kts | 142° |
| 2026-04-14 16:49 | 33.74489 | -84.58773 | 8911 ft | 288 kts | 125° |
| 2026-04-14 16:49 | 33.73634 | -84.56651 | 8779 ft | 279 kts | 108° |
| 2026-04-14 16:50 | 33.73302 | -84.54399 | 8652 ft | 270 kts | 91° |
| 2026-04-14 16:50 | 33.73305 | -84.52190 | 8527 ft | 258 kts | 90° |
| 2026-04-14 16:50 | 33.73306 | -84.50102 | 8361 ft | 244 kts | 90° |
| 2026-04-14 16:50 | 33.73306 | -84.48086 | 8169 ft | 240 kts | 90° |
| 2026-04-14 16:51 | 33.73306 | -84.46085 | 8019 ft | 240 kts | 90° |
| 2026-04-14 16:51 | 33.73303 | -84.44087 | 7879 ft | 238 kts | 90° |
| 2026-04-14 16:51 | 33.73300 | -84.42103 | 7739 ft | 238 kts | 90° |
| 2026-04-14 16:51 | 33.73297 | -84.40116 | 7602 ft | 239 kts | 90° |
| 2026-04-14 16:52 | 33.73295 | -84.38140 | 7470 ft | 233 kts | 90° |
| 2026-04-14 16:52 | 33.73295 | -84.36220 | 7298 ft | 226 kts | 90° |
| 2026-04-14 16:52 | 33.73293 | -84.34340 | 7175 ft | 224 kts | 90° |
| 2026-04-14 16:52 | 33.73291 | -84.32472 | 7036 ft | 225 kts | 90° |
| 2026-04-14 16:53 | 33.73290 | -84.30591 | 6910 ft | 224 kts | 90° |
| 2026-04-14 16:53 | 33.73292 | -84.28725 | 6788 ft | 223 kts | 90° |
| 2026-04-14 16:53 | 33.73298 | -84.26868 | 6651 ft | 222 kts | 90° |
| 2026-04-14 16:53 | 33.73302 | -84.25011 | 6520 ft | 223 kts | 91° |
| 2026-04-14 16:54 | 33.73303 | -84.23154 | 6392 ft | 222 kts | 90° |
| 2026-04-14 16:54 | 33.73303 | -84.21296 | 6264 ft | 222 kts | 90° |
| 2026-04-14 16:54 | 33.73303 | -84.19453 | 6136 ft | 221 kts | 90° |
| 2026-04-14 16:54 | 33.73304 | -84.17607 | 6015 ft | 221 kts | 91° |
| 2026-04-14 16:55 | 33.73303 | -84.15762 | 5892 ft | 220 kts | 90° |
| 2026-04-14 16:55 | 33.73304 | -84.14125 | 5783 ft | 220 kts | 90° |
| 2026-04-14 16:55 | 33.73292 | -84.12295 | 5650 ft | 219 kts | 96° |
| 2026-04-14 16:55 | 33.72833 | -84.10584 | 5512 ft | 216 kts | 125° |
| 2026-04-14 16:56 | 33.71764 | -84.09343 | 5100 ft | 215 kts | 156° |
| 2026-04-14 16:56 | 33.70395 | -84.08913 | 4877 ft | 196 kts | 183° |
| 2026-04-14 16:56 | 33.69140 | -84.09216 | 4770 ft | 181 kts | 207° |
| 2026-04-14 16:56 | 33.68105 | -84.10110 | 4705 ft | 184 kts | 230° |
| 2026-04-14 16:57 | 33.67637 | -84.10949 | 4660 ft | 183 kts | 246° |
| 2026-04-14 16:57 | 33.67090 | -84.12865 | 4595 ft | 183 kts | 252° |
| 2026-04-14 16:57 | 33.66689 | -84.14306 | 4542 ft | 182 kts | 251° |
| 2026-04-14 16:57 | 33.66284 | -84.15749 | 4488 ft | 183 kts | 251° |
| 2026-04-14 16:58 | 33.65876 | -84.17205 | 4437 ft | 184 kts | 251° |
| 2026-04-14 16:58 | 33.65471 | -84.18658 | 4378 ft | 183 kts | 251° |
| 2026-04-14 16:58 | 33.65071 | -84.20119 | 4302 ft | 187 kts | 254° |
| 2026-04-14 16:58 | 33.64949 | -84.21663 | 4081 ft | 185 kts | 268° |
| 2026-04-14 16:59 | 33.64942 | -84.22683 | 3921 ft | 184 kts | 269° |
| 2026-04-14 16:59 | 33.64942 | -84.24210 | 3687 ft | 182 kts | 269° |
| 2026-04-14 16:59 | 33.64944 | -84.25725 | 3444 ft | 180 kts | 269° |
| 2026-04-14 16:59 | 33.64945 | -84.27201 | 3212 ft | 172 kts | 269° |
| 2026-04-14 17:00 | 33.64947 | -84.28572 | 2994 ft | 157 kts | 269° |
| 2026-04-14 17:00 | 33.64949 | -84.29825 | 2825 ft | 144 kts | 267° |
| 2026-04-14 17:00 | 33.64950 | -84.31010 | 2625 ft | 139 kts | 268° |
| 2026-04-14 17:00 | 33.64950 | -84.32169 | 2446 ft | 137 kts | 268° |
| 2026-04-14 17:01 | 33.64951 | -84.33328 | 2252 ft | 139 kts | 268° |
| 2026-04-14 17:01 | 33.64952 | -84.34467 | 2079 ft | 136 kts | 267° |
| 2026-04-14 17:01 | 33.64952 | -84.35608 | 1897 ft | 136 kts | 268° |
| 2026-04-14 17:01 | 33.64953 | -84.36745 | 1728 ft | 136 kts | 268° |
| 2026-04-14 17:02 | 33.64953 | -84.37887 | 1544 ft | 136 kts | 268° |
| 2026-04-14 17:02 | 33.64953 | -84.39021 | 1357 ft | 137 kts | 267° |
| 2026-04-14 17:02 | 33.64953 | -84.40165 | 1186 ft | 136 kts | 268° |
| 2026-04-14 17:02 | 33.64954 | -84.41291 | 1014 ft | 134 kts | 269° |
| 2026-04-14 17:03 | 33.64954 | -84.42202 | 1007 ft | 70 kts | 270° |
| 2026-04-14 17:03 | 33.64955 | -84.42434 | 1007 ft | 1 kts | 270° |
| 2026-04-14 17:03 | 33.64955 | -84.42479 | 1007 ft | 9 kts | 269° |
| 2026-04-14 17:03 | 33.64941 | -84.42602 | 1007 ft | 21 kts | 259° |
| 2026-04-14 17:04 | 33.64890 | -84.42764 | 1006 ft | 22 kts | 241° |
| 2026-04-14 17:04 | 33.64789 | -84.42753 | 1006 ft | 16 kts | 94° |
| 2026-04-14 17:04 | 33.64790 | -84.42629 | 1006 ft | 14 kts | 91° |
| 2026-04-14 17:04 | 33.64789 | -84.42517 | 1006 ft | 13 kts | 90° |
| 2026-04-14 17:05 | 33.64788 | -84.42415 | 1006 ft | 12 kts | 90° |
| 2026-04-14 17:05 | 33.64755 | -84.42343 | 1005 ft | 10 kts | 156° |
| 2026-04-14 17:05 | 33.64687 | -84.42335 | 1005 ft | 10 kts | 179° |
| 2026-04-14 17:05 | 33.64613 | -84.42335 | 1005 ft | 11 kts | 180° |
| 2026-04-14 17:06 | 33.64533 | -84.42334 | 1006 ft | 12 kts | 180° |
| 2026-04-14 17:06 | 33.64469 | -84.42386 | 1006 ft | 13 kts | 262° |
| 2026-04-14 17:06 | 33.64467 | -84.42501 | 1006 ft | 15 kts | 270° |
| 2026-04-14 17:06 | 33.64467 | -84.42630 | 1006 ft | 16 kts | 270° |
| 2026-04-14 17:07 | 33.64461 | -84.42761 | 1006 ft | 14 kts | 254° |
| 2026-04-14 17:07 | 33.64399 | -84.42814 | 1006 ft | 9 kts | 215° |
| 2026-04-14 17:07 | 33.64387 | -84.42848 | 1006 ft | 0 kts | 257° |
| 2026-04-14 17:07 | 33.64387 | -84.42849 | 1006 ft | 1 kts | 257° |
| 2026-04-14 17:08 | 33.64385 | -84.42864 | 1006 ft | 3 kts | 264° |
| 2026-04-14 17:08 | 33.64376 | -84.42885 | 1006 ft | 0 kts | 234° |